Time,TemperatureF,DewpointF,PressureIn,WindDirection,WindDirectionDegrees,WindSpeedMPH,WindSpeedGustMPH,Humidity,HourlyPrecipIn,Conditions,Clouds,dailyrainin,SoftwareType,DateUTC
2013-06-15 00:02:00,77.0,72.9,29.89,North,-999,-999.0,-999.0,87,-99.99,,,-99.99,meteohub,2013-06-15 05:02:00,
2013-06-15 00:07:00,76.8,73.0,29.89,North,-999,-999.0,-999.0,88,-99.99,,,-99.99,meteohub,2013-06-15 05:07:00,
2013-06-15 00:12:00,76.8,73.4,29.88,North,-999,-999.0,-999.0,89,-99.99,,,-99.99,meteohub,2013-06-15 05:12:00,
2013-06-15 00:17:00,76.6,73.2,29.89,North,-999,-999.0,-999.0,89,-99.99,,,-99.99,meteohub,2013-06-15 05:17:00,
2013-06-15 00:22:00,76.5,73.0,29.88,North,-999,-999.0,-999.0,89,-99.99,,,-99.99,meteohub,2013-06-15 05:22:00,
2013-06-15 00:27:00,76.3,72.9,29.88,North,-999,-999.0,-999.0,89,-99.99,,,-99.99,meteohub,2013-06-15 05:27:00,
2013-06-15 00:32:00,76.3,72.9,29.88,North,-999,-999.0,-999.0,89,-99.99,,,-99.99,meteohub,2013-06-15 05:32:00,
2013-06-15 00:37:00,76.3,73.0,29.88,North,-999,-999.0,-999.0,90,-99.99,,,-99.99,meteohub,2013-06-15 05:37:00,
2013-06-15 00:42:00,76.3,73.0,29.88,North,-999,-999.0,-999.0,90,-99.99,,,-99.99,meteohub,2013-06-15 05:42:00,
2013-06-15 00:47:00,76.3,73.4,29.89,North,-999,-999.0,-999.0,91,-99.99,,,-99.99,meteohub,2013-06-15 05:47:00,
2013-06-15 00:52:00,76.3,73.4,29.89,North,-999,-999.0,-999.0,91,-99.99,,,-99.99,meteohub,2013-06-15 05:52:00,
2013-06-15 00:57:00,76.1,73.2,29.89,North,-999,-999.0,-999.0,91,-99.99,,,-99.99,meteohub,2013-06-15 05:57:00,
2013-06-15 01:02:00,75.7,72.9,29.89,North,-999,-999.0,-999.0,91,-99.99,,,-99.99,meteohub,2013-06-15 06:02:00,
2013-06-15 01:07:00,75.9,73.4,29.89,North,-999,-999.0,-999.0,92,-99.99,,,-99.99,meteohub,2013-06-15 06:07:00,
2013-06-15 01:12:00,75.7,73.2,29.89,North,-999,-999.0,-999.0,92,-99.99,,,-99.99,meteohub,2013-06-15 06:12:00,
2013-06-15 01:17:00,75.9,73.8,29.88,North,-999,-999.0,-999.0,93,-99.99,,,-99.99,meteohub,2013-06-15 06:17:00,
2013-06-15 01:22:00,75.9,73.8,29.87,North,-999,-999.0,-999.0,93,-99.99,,,-99.99,meteohub,2013-06-15 06:22:00,
2013-06-15 01:27:00,75.7,73.6,29.87,North,-999,-999.0,-999.0,93,-99.99,,,-99.99,meteohub,2013-06-15 06:27:00,
2013-06-15 01:32:00,76.3,73.8,29.86,North,-999,-999.0,-999.0,92,-99.99,,,-99.99,meteohub,2013-06-15 06:32:00,
2013-06-15 01:37:00,76.5,73.9,29.86,North,-999,-999.0,-999.0,92,-99.99,,,-99.99,meteohub,2013-06-15 06:37:00,
2013-06-15 01:42:00,76.5,73.9,29.86,North,-999,-999.0,-999.0,92,-99.99,,,-99.99,meteohub,2013-06-15 06:42:00,
2013-06-15 01:47:00,76.6,74.1,29.86,North,-999,-999.0,-999.0,92,-99.99,,,-99.99,meteohub,2013-06-15 06:47:00,
2013-06-15 01:52:00,76.6,74.1,29.87,North,-999,-999.0,-999.0,92,-99.99,,,-99.99,meteohub,2013-06-15 06:52:00,
2013-06-15 01:57:00,76.6,74.1,29.87,North,-999,-999.0,-999.0,92,-99.99,,,-99.99,meteohub,2013-06-15 06:57:00,
2013-06-15 02:02:00,76.5,73.9,29.87,North,-999,-999.0,-999.0,92,-99.99,,,-99.99,meteohub,2013-06-15 07:02:00,
2013-06-15 02:07:00,76.5,73.9,29.87,North,-999,-999.0,-999.0,92,-99.99,,,-99.99,meteohub,2013-06-15 07:07:00,
2013-06-15 02:12:00,76.5,73.9,29.87,North,-999,-999.0,-999.0,92,-99.99,,,-99.99,meteohub,2013-06-15 07:12:00,
2013-06-15 02:17:00,76.3,74.1,29.87,North,-999,-999.0,-999.0,93,-99.99,,,-99.99,meteohub,2013-06-15 07:17:00,
2013-06-15 02:22:00,76.5,74.3,29.87,North,-999,-999.0,-999.0,93,-99.99,,,-99.99,meteohub,2013-06-15 07:22:00,
2013-06-15 02:27:00,76.6,74.5,29.87,North,-999,-999.0,-999.0,93,-99.99,,,-99.99,meteohub,2013-06-15 07:27:00,
2013-06-15 02:32:00,76.6,74.5,29.87,North,-999,-999.0,-999.0,93,-99.99,,,-99.99,meteohub,2013-06-15 07:32:00,
2013-06-15 02:37:00,76.3,74.1,29.88,North,-999,-999.0,-999.0,93,-99.99,,,-99.99,meteohub,2013-06-15 07:37:00,
2013-06-15 02:42:00,76.6,74.5,29.88,North,-999,-999.0,-999.0,93,-99.99,,,-99.99,meteohub,2013-06-15 07:42:00,
2013-06-15 02:47:00,76.5,74.3,29.88,North,-999,-999.0,-999.0,93,-99.99,,,-99.99,meteohub,2013-06-15 07:47:00,
2013-06-15 02:52:00,76.3,74.1,29.88,North,-999,-999.0,-999.0,93,-99.99,,,-99.99,meteohub,2013-06-15 07:52:00,
2013-06-15 02:57:00,76.3,74.1,29.89,North,-999,-999.0,-999.0,93,-99.99,,,-99.99,meteohub,2013-06-15 07:57:00,
2013-06-15 03:02:00,76.1,73.9,29.89,North,-999,-999.0,-999.0,93,-99.99,,,-99.99,meteohub,2013-06-15 08:02:00,
2013-06-15 03:07:00,76.1,73.9,29.89,North,-999,-999.0,-999.0,93,-99.99,,,-99.99,meteohub,2013-06-15 08:07:00,
2013-06-15 03:12:00,75.9,74.1,29.89,North,-999,-999.0,-999.0,94,-99.99,,,-99.99,meteohub,2013-06-15 08:12:00,
2013-06-15 03:17:00,75.9,74.1,29.88,North,-999,-999.0,-999.0,94,-99.99,,,-99.99,meteohub,2013-06-15 08:17:00,
2013-06-15 03:22:00,75.9,74.3,29.88,North,-999,-999.0,-999.0,95,-99.99,,,-99.99,meteohub,2013-06-15 08:22:00,
2013-06-15 03:27:00,75.7,74.1,29.88,North,-999,-999.0,-999.0,95,-99.99,,,-99.99,meteohub,2013-06-15 08:27:00,
2013-06-15 03:32:00,75.7,74.1,29.88,North,-999,-999.0,-999.0,95,-99.99,,,-99.99,meteohub,2013-06-15 08:32:00,
2013-06-15 03:37:00,75.7,74.1,29.88,North,-999,-999.0,-999.0,95,-99.99,,,-99.99,meteohub,2013-06-15 08:37:00,
2013-06-15 03:42:00,75.7,74.1,29.89,North,-999,-999.0,-999.0,95,-99.99,,,-99.99,meteohub,2013-06-15 08:42:00,
2013-06-15 03:47:00,75.7,74.1,29.90,North,-999,-999.0,-999.0,95,-99.99,,,-99.99,meteohub,2013-06-15 08:47:00,
2013-06-15 03:52:00,75.7,74.1,29.90,North,-999,-999.0,-999.0,95,-99.99,,,-99.99,meteohub,2013-06-15 08:52:00,
2013-06-15 03:57:00,75.7,74.1,29.90,North,-999,-999.0,-999.0,95,-99.99,,,-99.99,meteohub,2013-06-15 08:57:00,
2013-06-15 04:02:00,75.7,74.5,29.88,North,-999,-999.0,-999.0,96,-99.99,,,-99.99,meteohub,2013-06-15 09:02:00,
2013-06-15 04:07:00,75.6,74.3,29.89,North,-999,-999.0,-999.0,96,-99.99,,,-99.99,meteohub,2013-06-15 09:07:00,
2013-06-15 04:12:00,75.6,74.3,29.89,North,-999,-999.0,-999.0,96,-99.99,,,-99.99,meteohub,2013-06-15 09:12:00,
2013-06-15 04:17:00,75.6,74.3,29.89,North,-999,-999.0,-999.0,96,-99.99,,,-99.99,meteohub,2013-06-15 09:17:00,
2013-06-15 04:22:00,75.6,74.7,29.89,North,-999,-999.0,-999.0,97,-99.99,,,-99.99,meteohub,2013-06-15 09:22:00,
2013-06-15 04:27:00,75.7,74.5,29.90,North,-999,-999.0,-999.0,96,-99.99,,,-99.99,meteohub,2013-06-15 09:27:00,
2013-06-15 04:32:00,75.7,74.5,29.90,North,-999,-999.0,-999.0,96,-99.99,,,-99.99,meteohub,2013-06-15 09:32:00,
2013-06-15 04:37:00,75.6,74.7,29.89,North,-999,-999.0,-999.0,97,-99.99,,,-99.99,meteohub,2013-06-15 09:37:00,
2013-06-15 04:42:00,75.6,74.7,29.90,North,-999,-999.0,-999.0,97,-99.99,,,-99.99,meteohub,2013-06-15 09:42:00,
2013-06-15 04:47:00,75.6,74.7,29.90,North,-999,-999.0,-999.0,97,-99.99,,,-99.99,meteohub,2013-06-15 09:47:00,
2013-06-15 04:52:00,75.4,74.5,29.89,North,-999,-999.0,-999.0,97,-99.99,,,-99.99,meteohub,2013-06-15 09:52:00,
2013-06-15 04:57:00,75.6,74.7,29.90,North,-999,-999.0,-999.0,97,-99.99,,,-99.99,meteohub,2013-06-15 09:57:00,
2013-06-15 05:02:00,75.4,74.1,29.90,North,-999,-999.0,-999.0,96,-99.99,,,-99.99,meteohub,2013-06-15 10:02:00,
2013-06-15 05:07:00,75.4,74.1,29.90,North,-999,-999.0,-999.0,96,-99.99,,,-99.99,meteohub,2013-06-15 10:07:00,
2013-06-15 05:12:00,75.2,73.9,29.89,North,-999,-999.0,-999.0,96,-99.99,,,-99.99,meteohub,2013-06-15 10:12:00,
2013-06-15 05:17:00,75.0,73.8,29.89,North,-999,-999.0,-999.0,96,-99.99,,,-99.99,meteohub,2013-06-15 10:17:00,
2013-06-15 05:22:00,74.8,73.9,29.90,North,-999,-999.0,-999.0,97,-99.99,,,-99.99,meteohub,2013-06-15 10:22:00,
2013-06-15 05:27:00,74.8,73.9,29.90,North,-999,-999.0,-999.0,97,-99.99,,,-99.99,meteohub,2013-06-15 10:27:00,
2013-06-15 05:32:00,74.5,73.9,29.90,North,-999,-999.0,-999.0,98,-99.99,,,-99.99,meteohub,2013-06-15 10:32:00,
2013-06-15 05:37:00,74.7,73.8,29.90,North,-999,-999.0,-999.0,97,-99.99,,,-99.99,meteohub,2013-06-15 10:37:00,
2013-06-15 05:42:00,74.7,73.8,29.91,North,-999,-999.0,-999.0,97,-99.99,,,-99.99,meteohub,2013-06-15 10:42:00,
2013-06-15 05:47:00,74.3,73.8,29.91,North,-999,-999.0,-999.0,98,-99.99,,,-99.99,meteohub,2013-06-15 10:47:00,
2013-06-15 05:52:00,74.5,73.9,29.91,North,-999,-999.0,-999.0,98,-99.99,,,-99.99,meteohub,2013-06-15 10:52:00,
2013-06-15 05:57:00,74.5,73.9,29.91,North,-999,-999.0,-999.0,98,-99.99,,,-99.99,meteohub,2013-06-15 10:57:00,
2013-06-15 06:02:00,74.5,73.9,29.91,North,-999,-999.0,-999.0,98,-99.99,,,-99.99,meteohub,2013-06-15 11:02:00,
2013-06-15 06:07:00,74.7,74.1,29.91,North,-999,-999.0,-999.0,98,-99.99,,,-99.99,meteohub,2013-06-15 11:07:00,
2013-06-15 06:12:00,74.7,74.1,29.91,North,-999,-999.0,-999.0,98,-99.99,,,-99.99,meteohub,2013-06-15 11:12:00,
2013-06-15 06:17:00,74.7,74.1,29.91,North,-999,-999.0,-999.0,98,-99.99,,,-99.99,meteohub,2013-06-15 11:17:00,
2013-06-15 06:22:00,74.7,74.1,29.91,North,-999,-999.0,-999.0,98,-99.99,,,-99.99,meteohub,2013-06-15 11:22:00,
2013-06-15 06:27:00,74.7,74.1,29.91,North,-999,-999.0,-999.0,98,-99.99,,,-99.99,meteohub,2013-06-15 11:27:00,
2013-06-15 06:32:00,75.0,74.1,29.91,North,-999,-999.0,-999.0,97,-99.99,,,-99.99,meteohub,2013-06-15 11:32:00,
2013-06-15 06:37:00,75.2,74.3,29.92,North,-999,-999.0,-999.0,97,-99.99,,,-99.99,meteohub,2013-06-15 11:37:00,
2013-06-15 06:42:00,75.2,74.3,29.92,North,-999,-999.0,-999.0,97,-99.99,,,-99.99,meteohub,2013-06-15 11:42:00,
2013-06-15 06:47:00,75.6,74.3,29.93,North,-999,-999.0,-999.0,96,-99.99,,,-99.99,meteohub,2013-06-15 11:47:00,
2013-06-15 06:52:00,75.7,74.5,29.93,North,-999,-999.0,-999.0,96,-99.99,,,-99.99,meteohub,2013-06-15 11:52:00,
2013-06-15 06:57:00,76.1,74.5,29.93,North,-999,-999.0,-999.0,95,-99.99,,,-99.99,meteohub,2013-06-15 11:57:00,
2013-06-15 07:02:00,76.1,74.5,29.93,North,-999,-999.0,-999.0,95,-99.99,,,-99.99,meteohub,2013-06-15 12:02:00,
2013-06-15 07:07:00,76.3,74.5,29.93,North,-999,-999.0,-999.0,94,-99.99,,,-99.99,meteohub,2013-06-15 12:07:00,
2013-06-15 07:12:00,76.5,74.7,29.93,North,-999,-999.0,-999.0,94,-99.99,,,-99.99,meteohub,2013-06-15 12:12:00,
2013-06-15 07:17:00,76.5,74.7,29.92,North,-999,-999.0,-999.0,94,-99.99,,,-99.99,meteohub,2013-06-15 12:17:00,
2013-06-15 07:22:00,76.5,74.7,29.92,North,-999,-999.0,-999.0,94,-99.99,,,-99.99,meteohub,2013-06-15 12:22:00,
2013-06-15 07:27:00,76.5,74.3,29.91,North,-999,-999.0,-999.0,93,-99.99,,,-99.99,meteohub,2013-06-15 12:27:00,
2013-06-15 07:32:00,76.5,74.7,29.92,North,-999,-999.0,-999.0,94,-99.99,,,-99.99,meteohub,2013-06-15 12:32:00,
2013-06-15 07:37:00,76.6,74.5,29.91,North,-999,-999.0,-999.0,93,-99.99,,,-99.99,meteohub,2013-06-15 12:37:00,
2013-06-15 07:42:00,77.0,74.5,29.92,North,-999,-999.0,-999.0,92,-99.99,,,-99.99,meteohub,2013-06-15 12:42:00,
2013-06-15 07:47:00,78.3,75.4,29.92,North,-999,-999.0,-999.0,91,-99.99,,,-99.99,meteohub,2013-06-15 12:47:00,
2013-06-15 07:52:00,79.9,75.7,29.92,North,-999,-999.0,-999.0,87,-99.99,,,-99.99,meteohub,2013-06-15 12:52:00,
2013-06-15 07:57:00,81.0,75.4,29.92,North,-999,-999.0,-999.0,83,-99.99,,,-99.99,meteohub,2013-06-15 12:57:00,
2013-06-15 08:02:00,81.7,75.2,29.91,North,-999,-999.0,-999.0,81,-99.99,,,-99.99,meteohub,2013-06-15 13:02:00,
2013-06-15 08:07:00,82.2,75.0,29.91,North,-999,-999.0,-999.0,79,-99.99,,,-99.99,meteohub,2013-06-15 13:07:00,
2013-06-15 08:12:00,82.0,74.8,29.91,North,-999,-999.0,-999.0,79,-99.99,,,-99.99,meteohub,2013-06-15 13:12:00,
2013-06-15 08:17:00,82.6,75.4,29.92,North,-999,-999.0,-999.0,79,-99.99,,,-99.99,meteohub,2013-06-15 13:17:00,
2013-06-15 08:22:00,82.2,74.7,29.92,North,-999,-999.0,-999.0,78,-99.99,,,-99.99,meteohub,2013-06-15 13:22:00,
2013-06-15 08:27:00,81.1,73.9,29.92,North,-999,-999.0,-999.0,79,-99.99,,,-99.99,meteohub,2013-06-15 13:27:00,
2013-06-15 08:32:00,80.4,74.8,29.92,North,-999,-999.0,-999.0,83,-99.99,,,-99.99,meteohub,2013-06-15 13:32:00,
2013-06-15 08:37:00,81.9,75.0,29.92,North,-999,-999.0,-999.0,80,-99.99,,,-99.99,meteohub,2013-06-15 13:37:00,
2013-06-15 08:42:00,82.9,75.4,29.92,North,-999,-999.0,-999.0,78,-99.99,,,-99.99,meteohub,2013-06-15 13:42:00,
2013-06-15 08:47:00,82.8,75.2,29.92,North,-999,-999.0,-999.0,78,-99.99,,,-99.99,meteohub,2013-06-15 13:47:00,
2013-06-15 08:52:00,82.2,75.0,29.91,North,-999,-999.0,-999.0,79,-99.99,,,-99.99,meteohub,2013-06-15 13:52:00,
2013-06-15 08:57:00,82.9,75.4,29.92,North,-999,-999.0,-999.0,78,-99.99,,,-99.99,meteohub,2013-06-15 13:57:00,
2013-06-15 09:02:00,83.7,75.7,29.92,North,-999,-999.0,-999.0,77,-99.99,,,-99.99,meteohub,2013-06-15 14:02:00,
2013-06-15 09:09:00,84.0,76.1,29.92,North,-999,-999.0,-999.0,77,-99.99,,,-99.99,meteohub,2013-06-15 14:09:00,
2013-06-15 09:15:00,84.6,75.4,29.92,North,-999,-999.0,-999.0,74,-99.99,,,-99.99,meteohub,2013-06-15 14:15:00,
2013-06-15 09:21:00,84.7,75.9,29.92,North,-999,-999.0,-999.0,75,-99.99,,,-99.99,meteohub,2013-06-15 14:21:00,
2013-06-15 09:27:00,85.1,76.3,29.92,North,-999,-999.0,-999.0,75,-99.99,,,-99.99,meteohub,2013-06-15 14:27:00,
2013-06-15 09:32:00,85.5,76.3,29.91,North,-999,-999.0,-999.0,74,-99.99,,,-99.99,meteohub,2013-06-15 14:32:00,
2013-06-15 09:37:00,84.7,75.6,29.91,North,-999,-999.0,-999.0,74,-99.99,,,-99.99,meteohub,2013-06-15 14:37:00,
2013-06-15 09:42:00,83.7,75.7,29.91,North,-999,-999.0,-999.0,77,-99.99,,,-99.99,meteohub,2013-06-15 14:42:00,
2013-06-15 09:47:00,82.9,75.4,29.92,North,-999,-999.0,-999.0,78,-99.99,,,-99.99,meteohub,2013-06-15 14:47:00,
2013-06-15 09:52:00,83.5,76.3,29.92,North,-999,-999.0,-999.0,79,-99.99,,,-99.99,meteohub,2013-06-15 14:52:00,
2013-06-15 09:57:00,85.1,76.6,29.92,North,-999,-999.0,-999.0,76,-99.99,,,-99.99,meteohub,2013-06-15 14:57:00,
2013-06-15 10:02:00,86.4,76.3,29.91,North,-999,-999.0,-999.0,72,-99.99,,,-99.99,meteohub,2013-06-15 15:02:00,
2013-06-15 10:07:00,87.1,75.7,29.92,North,-999,-999.0,-999.0,69,-99.99,,,-99.99,meteohub,2013-06-15 15:07:00,
2013-06-15 10:12:00,87.3,75.4,29.92,North,-999,-999.0,-999.0,68,-99.99,,,-99.99,meteohub,2013-06-15 15:12:00,
2013-06-15 10:17:00,87.1,75.2,29.91,North,-999,-999.0,-999.0,68,-99.99,,,-99.99,meteohub,2013-06-15 15:17:00,
2013-06-15 10:22:00,88.0,75.6,29.91,North,-999,-999.0,-999.0,67,-99.99,,,-99.99,meteohub,2013-06-15 15:22:00,
2013-06-15 10:27:00,88.3,74.7,29.91,North,-999,-999.0,-999.0,64,-99.99,,,-99.99,meteohub,2013-06-15 15:27:00,
2013-06-15 10:32:00,89.6,74.8,29.91,North,-999,-999.0,-999.0,62,-99.99,,,-99.99,meteohub,2013-06-15 15:32:00,
2013-06-15 10:37:00,89.8,74.1,29.91,North,-999,-999.0,-999.0,60,-99.99,,,-99.99,meteohub,2013-06-15 15:37:00,
2013-06-15 10:42:00,90.5,75.7,29.91,North,-999,-999.0,-999.0,62,-99.99,,,-99.99,meteohub,2013-06-15 15:42:00,
2013-06-15 10:47:00,91.2,74.8,29.91,North,-999,-999.0,-999.0,59,-99.99,,,-99.99,meteohub,2013-06-15 15:47:00,
2013-06-15 10:52:00,91.0,73.8,29.91,North,-999,-999.0,-999.0,57,-99.99,,,-99.99,meteohub,2013-06-15 15:52:00,
2013-06-15 10:57:00,90.3,73.6,29.91,North,-999,-999.0,-999.0,58,-99.99,,,-99.99,meteohub,2013-06-15 15:57:00,
2013-06-15 11:02:00,90.3,74.5,29.91,North,-999,-999.0,-999.0,60,-99.99,,,-99.99,meteohub,2013-06-15 16:02:00,
2013-06-15 11:07:00,91.6,74.1,29.91,North,-999,-999.0,-999.0,57,-99.99,,,-99.99,meteohub,2013-06-15 16:07:00,
2013-06-15 11:12:00,90.9,74.5,29.91,North,-999,-999.0,-999.0,59,-99.99,,,-99.99,meteohub,2013-06-15 16:12:00,
2013-06-15 11:17:00,90.3,73.6,29.91,North,-999,-999.0,-999.0,58,-99.99,,,-99.99,meteohub,2013-06-15 16:17:00,
2013-06-15 11:22:00,90.1,73.9,29.91,North,-999,-999.0,-999.0,59,-99.99,,,-99.99,meteohub,2013-06-15 16:22:00,
2013-06-15 11:27:00,89.8,74.5,29.92,North,-999,-999.0,-999.0,61,-99.99,,,-99.99,meteohub,2013-06-15 16:27:00,
2013-06-15 11:32:00,89.4,73.8,29.92,North,-999,-999.0,-999.0,60,-99.99,,,-99.99,meteohub,2013-06-15 16:32:00,
2013-06-15 11:37:00,89.4,73.8,29.91,North,-999,-999.0,-999.0,60,-99.99,,,-99.99,meteohub,2013-06-15 16:37:00,
2013-06-15 11:42:00,89.6,74.3,29.92,North,-999,-999.0,-999.0,61,-99.99,,,-99.99,meteohub,2013-06-15 16:42:00,
2013-06-15 11:47:00,88.9,73.8,29.92,North,-999,-999.0,-999.0,61,-99.99,,,-99.99,meteohub,2013-06-15 16:47:00,
2013-06-15 11:52:00,88.5,74.3,29.93,North,-999,-999.0,-999.0,63,-99.99,,,-99.99,meteohub,2013-06-15 16:52:00,
2013-06-15 11:57:00,88.2,73.9,29.92,North,-999,-999.0,-999.0,63,-99.99,,,-99.99,meteohub,2013-06-15 16:57:00,
2013-06-15 12:02:00,88.0,74.3,29.93,North,-999,-999.0,-999.0,64,-99.99,,,-99.99,meteohub,2013-06-15 17:02:00,
2013-06-15 12:07:00,88.2,73.0,29.92,North,-999,-999.0,-999.0,61,-99.99,,,-99.99,meteohub,2013-06-15 17:07:00,
2013-06-15 12:12:00,88.0,72.9,29.92,North,-999,-999.0,-999.0,61,-99.99,,,-99.99,meteohub,2013-06-15 17:12:00,
2013-06-15 12:17:00,88.5,72.9,29.92,North,-999,-999.0,-999.0,60,-99.99,,,-99.99,meteohub,2013-06-15 17:17:00,
2013-06-15 12:22:00,88.7,72.5,29.92,North,-999,-999.0,-999.0,59,-99.99,,,-99.99,meteohub,2013-06-15 17:22:00,
2013-06-15 12:27:00,88.5,72.3,29.92,North,-999,-999.0,-999.0,59,-99.99,,,-99.99,meteohub,2013-06-15 17:27:00,
2013-06-15 12:32:00,88.2,72.0,29.91,North,-999,-999.0,-999.0,59,-99.99,,,-99.99,meteohub,2013-06-15 17:32:00,
2013-06-15 12:37:00,88.9,72.1,29.91,North,-999,-999.0,-999.0,58,-99.99,,,-99.99,meteohub,2013-06-15 17:37:00,
2013-06-15 12:42:00,89.8,72.5,29.91,North,-999,-999.0,-999.0,57,-99.99,,,-99.99,meteohub,2013-06-15 17:42:00,
2013-06-15 12:47:00,90.3,73.6,29.91,North,-999,-999.0,-999.0,58,-99.99,,,-99.99,meteohub,2013-06-15 17:47:00,
2013-06-15 12:52:00,91.2,72.9,29.91,North,-999,-999.0,-999.0,55,-99.99,,,-99.99,meteohub,2013-06-15 17:52:00,
2013-06-15 12:57:00,90.9,72.0,29.91,North,-999,-999.0,-999.0,54,-99.99,,,-99.99,meteohub,2013-06-15 17:57:00,
2013-06-15 13:02:00,91.2,72.3,29.91,North,-999,-999.0,-999.0,54,-99.99,,,-99.99,meteohub,2013-06-15 18:02:00,
2013-06-15 13:07:00,91.8,71.1,29.90,North,-999,-999.0,-999.0,51,-99.99,,,-99.99,meteohub,2013-06-15 18:07:00,
2013-06-15 13:12:00,92.7,71.2,29.90,North,-999,-999.0,-999.0,50,-99.99,,,-99.99,meteohub,2013-06-15 18:12:00,
2013-06-15 13:17:00,93.2,72.3,29.89,North,-999,-999.0,-999.0,51,-99.99,,,-99.99,meteohub,2013-06-15 18:17:00,
2013-06-15 13:22:00,92.5,71.1,29.89,North,-999,-999.0,-999.0,50,-99.99,,,-99.99,meteohub,2013-06-15 18:22:00,
2013-06-15 13:27:00,91.9,70.0,29.89,North,-999,-999.0,-999.0,49,-99.99,,,-99.99,meteohub,2013-06-15 18:27:00,
2013-06-15 13:32:00,91.9,71.2,29.88,North,-999,-999.0,-999.0,51,-99.99,,,-99.99,meteohub,2013-06-15 18:32:00,
2013-06-15 13:37:00,92.5,73.9,29.88,North,-999,-999.0,-999.0,55,-99.99,,,-99.99,meteohub,2013-06-15 18:37:00,
2013-06-15 13:42:00,92.8,70.9,29.88,North,-999,-999.0,-999.0,49,-99.99,,,-99.99,meteohub,2013-06-15 18:42:00,
2013-06-15 13:47:00,92.3,70.9,29.88,North,-999,-999.0,-999.0,50,-99.99,,,-99.99,meteohub,2013-06-15 18:47:00,
2013-06-15 13:52:00,92.8,72.0,29.87,North,-999,-999.0,-999.0,51,-99.99,,,-99.99,meteohub,2013-06-15 18:52:00,
2013-06-15 13:57:00,93.2,71.2,29.87,North,-999,-999.0,-999.0,49,-99.99,,,-99.99,meteohub,2013-06-15 18:57:00,
2013-06-15 14:02:00,93.4,70.7,29.87,North,-999,-999.0,-999.0,48,-99.99,,,-99.99,meteohub,2013-06-15 19:02:00,
2013-06-15 14:07:00,94.3,70.9,29.87,North,-999,-999.0,-999.0,47,-99.99,,,-99.99,meteohub,2013-06-15 19:07:00,
2013-06-15 14:12:00,93.2,69.3,29.87,North,-999,-999.0,-999.0,46,-99.99,,,-99.99,meteohub,2013-06-15 19:12:00,
2013-06-15 14:17:00,93.2,69.3,29.87,North,-999,-999.0,-999.0,46,-99.99,,,-99.99,meteohub,2013-06-15 19:17:00,
2013-06-15 14:22:00,92.8,70.3,29.87,North,-999,-999.0,-999.0,48,-99.99,,,-99.99,meteohub,2013-06-15 19:22:00,
2013-06-15 14:27:00,92.3,68.5,29.87,North,-999,-999.0,-999.0,46,-99.99,,,-99.99,meteohub,2013-06-15 19:27:00,
2013-06-15 14:32:00,91.2,69.4,29.87,North,-999,-999.0,-999.0,49,-99.99,,,-99.99,meteohub,2013-06-15 19:32:00,
2013-06-15 14:37:00,90.9,69.6,29.86,North,-999,-999.0,-999.0,50,-99.99,,,-99.99,meteohub,2013-06-15 19:37:00,
2013-06-15 14:42:00,91.2,68.7,29.86,North,-999,-999.0,-999.0,48,-99.99,,,-99.99,meteohub,2013-06-15 19:42:00,
2013-06-15 14:47:00,89.8,68.7,29.86,North,-999,-999.0,-999.0,50,-99.99,,,-99.99,meteohub,2013-06-15 19:47:00,
2013-06-15 14:52:00,88.5,68.7,29.87,North,-999,-999.0,-999.0,52,-99.99,,,-99.99,meteohub,2013-06-15 19:52:00,
2013-06-15 14:57:00,88.5,68.0,29.85,North,-999,-999.0,-999.0,51,-99.99,,,-99.99,meteohub,2013-06-15 19:57:00,
2013-06-15 15:02:00,88.0,68.2,29.85,North,-999,-999.0,-999.0,52,-99.99,,,-99.99,meteohub,2013-06-15 20:02:00,
2013-06-15 15:07:00,87.6,67.8,29.86,North,-999,-999.0,-999.0,52,-99.99,,,-99.99,meteohub,2013-06-15 20:07:00,
2013-06-15 15:12:00,87.3,67.5,29.87,North,-999,-999.0,-999.0,52,-99.99,,,-99.99,meteohub,2013-06-15 20:12:00,
2013-06-15 15:17:00,86.7,68.5,29.90,North,-999,-999.0,-999.0,55,-99.99,,,-99.99,meteohub,2013-06-15 20:17:00,
2013-06-15 15:22:00,79.9,64.8,29.88,North,-999,-999.0,-999.0,60,-99.99,,,-99.99,meteohub,2013-06-15 20:22:00,
2013-06-15 15:27:00,75.9,65.8,29.90,North,-999,-999.0,-999.0,71,-99.99,,,-99.99,meteohub,2013-06-15 20:27:00,
2013-06-15 15:32:00,71.8,68.4,29.91,North,-999,-999.0,-999.0,89,-99.99,,,-99.99,meteohub,2013-06-15 20:32:00,
2013-06-15 15:37:00,70.0,69.1,29.92,North,-999,-999.0,-999.0,97,-99.99,,,-99.99,meteohub,2013-06-15 20:37:00,
2013-06-15 15:42:00,69.4,69.1,29.96,North,-999,-999.0,-999.0,99,-99.99,,,-99.99,meteohub,2013-06-15 20:42:00,
2013-06-15 15:47:00,68.9,68.5,29.96,North,-999,-999.0,-999.0,99,-99.99,,,-99.99,meteohub,2013-06-15 20:47:00,
2013-06-15 15:52:00,68.5,68.2,29.96,North,-999,-999.0,-999.0,99,-99.99,,,-99.99,meteohub,2013-06-15 20:52:00,
2013-06-15 15:57:00,68.5,68.2,29.97,North,-999,-999.0,-999.0,99,-99.99,,,-99.99,meteohub,2013-06-15 20:57:00,
2013-06-15 16:02:00,68.2,67.8,29.96,North,-999,-999.0,-999.0,99,-99.99,,,-99.99,meteohub,2013-06-15 21:02:00,
2013-06-15 16:07:00,68.0,67.6,29.94,North,-999,-999.0,-999.0,99,-99.99,,,-99.99,meteohub,2013-06-15 21:07:00,
2013-06-15 16:12:00,68.0,67.6,29.93,North,-999,-999.0,-999.0,99,-99.99,,,-99.99,meteohub,2013-06-15 21:12:00,
2013-06-15 16:17:00,68.0,67.6,29.93,North,-999,-999.0,-999.0,99,-99.99,,,-99.99,meteohub,2013-06-15 21:17:00,
2013-06-15 16:22:00,68.0,67.6,29.92,North,-999,-999.0,-999.0,99,-99.99,,,-99.99,meteohub,2013-06-15 21:22:00,
2013-06-15 16:27:00,68.0,67.6,29.93,North,-999,-999.0,-999.0,99,-99.99,,,-99.99,meteohub,2013-06-15 21:27:00,
2013-06-15 16:32:00,68.2,67.8,29.93,North,-999,-999.0,-999.0,99,-99.99,,,-99.99,meteohub,2013-06-15 21:32:00,
2013-06-15 16:37:00,68.4,68.0,29.93,North,-999,-999.0,-999.0,99,-99.99,,,-99.99,meteohub,2013-06-15 21:37:00,
2013-06-15 16:42:00,68.4,68.0,29.94,North,-999,-999.0,-999.0,99,-99.99,,,-99.99,meteohub,2013-06-15 21:42:00,
2013-06-15 16:47:00,68.4,68.0,29.94,North,-999,-999.0,-999.0,99,-99.99,,,-99.99,meteohub,2013-06-15 21:47:00,
2013-06-15 16:52:00,68.4,68.0,29.94,North,-999,-999.0,-999.0,99,-99.99,,,-99.99,meteohub,2013-06-15 21:52:00,
2013-06-15 16:57:00,68.2,67.8,29.94,North,-999,-999.0,-999.0,99,-99.99,,,-99.99,meteohub,2013-06-15 21:57:00,
2013-06-15 17:02:00,68.2,67.8,29.94,North,-999,-999.0,-999.0,99,-99.99,,,-99.99,meteohub,2013-06-15 22:02:00,
2013-06-15 17:07:00,68.4,68.0,29.95,North,-999,-999.0,-999.0,99,-99.99,,,-99.99,meteohub,2013-06-15 22:07:00,
2013-06-15 17:12:00,68.5,68.2,29.96,North,-999,-999.0,-999.0,99,-99.99,,,-99.99,meteohub,2013-06-15 22:12:00,
2013-06-15 17:17:00,68.5,68.2,29.96,North,-999,-999.0,-999.0,99,-99.99,,,-99.99,meteohub,2013-06-15 22:17:00,
2013-06-15 17:22:00,68.5,68.2,29.95,North,-999,-999.0,-999.0,99,-99.99,,,-99.99,meteohub,2013-06-15 22:22:00,
2013-06-15 17:27:00,68.5,68.2,29.95,North,-999,-999.0,-999.0,99,-99.99,,,-99.99,meteohub,2013-06-15 22:27:00,
2013-06-15 17:32:00,68.5,68.2,29.96,North,-999,-999.0,-999.0,99,-99.99,,,-99.99,meteohub,2013-06-15 22:32:00,
2013-06-15 17:37:00,68.5,68.2,29.95,North,-999,-999.0,-999.0,99,-99.99,,,-99.99,meteohub,2013-06-15 22:37:00,
2013-06-15 17:42:00,68.5,68.2,29.94,North,-999,-999.0,-999.0,99,-99.99,,,-99.99,meteohub,2013-06-15 22:42:00,
2013-06-15 17:47:00,68.5,68.2,29.94,North,-999,-999.0,-999.0,99,-99.99,,,-99.99,meteohub,2013-06-15 22:47:00,
2013-06-15 17:52:00,68.5,68.2,29.94,North,-999,-999.0,-999.0,99,-99.99,,,-99.99,meteohub,2013-06-15 22:52:00,
2013-06-15 17:57:00,68.5,68.2,29.94,North,-999,-999.0,-999.0,99,-99.99,,,-99.99,meteohub,2013-06-15 22:57:00,
2013-06-15 18:02:00,68.5,68.2,29.94,North,-999,-999.0,-999.0,99,-99.99,,,-99.99,meteohub,2013-06-15 23:02:00,
2013-06-15 18:07:00,68.5,68.2,29.94,North,-999,-999.0,-999.0,99,-99.99,,,-99.99,meteohub,2013-06-15 23:07:00,
2013-06-15 18:12:00,68.4,68.0,29.93,North,-999,-999.0,-999.0,99,-99.99,,,-99.99,meteohub,2013-06-15 23:12:00,
2013-06-15 18:17:00,68.2,67.8,29.92,North,-999,-999.0,-999.0,99,-99.99,,,-99.99,meteohub,2013-06-15 23:17:00,
2013-06-15 18:22:00,68.0,67.6,29.91,North,-999,-999.0,-999.0,99,-99.99,,,-99.99,meteohub,2013-06-15 23:22:00,
2013-06-15 18:27:00,68.2,67.8,29.92,North,-999,-999.0,-999.0,99,-99.99,,,-99.99,meteohub,2013-06-15 23:27:00,
2013-06-15 18:32:00,68.4,68.0,29.91,North,-999,-999.0,-999.0,99,-99.99,,,-99.99,meteohub,2013-06-15 23:32:00,
2013-06-15 18:37:00,68.5,68.2,29.90,North,-999,-999.0,-999.0,99,-99.99,,,-99.99,meteohub,2013-06-15 23:37:00,
2013-06-15 18:42:00,68.5,68.2,29.90,North,-999,-999.0,-999.0,99,-99.99,,,-99.99,meteohub,2013-06-15 23:42:00,
2013-06-15 18:47:00,68.5,68.2,29.89,North,-999,-999.0,-999.0,99,-99.99,,,-99.99,meteohub,2013-06-15 23:47:00,
2013-06-15 18:52:00,68.5,68.2,29.88,North,-999,-999.0,-999.0,99,-99.99,,,-99.99,meteohub,2013-06-15 23:52:00,
2013-06-15 18:57:00,68.7,68.4,29.88,North,-999,-999.0,-999.0,99,-99.99,,,-99.99,meteohub,2013-06-15 23:57:00,
2013-06-15 19:02:00,68.7,68.4,29.87,North,-999,-999.0,-999.0,99,-99.99,,,-99.99,meteohub,2013-06-16 00:02:00,
2013-06-15 19:07:00,69.1,68.7,29.87,North,-999,-999.0,-999.0,99,-99.99,,,-99.99,meteohub,2013-06-16 00:07:00,
2013-06-15 19:12:00,69.3,68.9,29.86,North,-999,-999.0,-999.0,99,-99.99,,,-99.99,meteohub,2013-06-16 00:12:00,
2013-06-15 19:17:00,69.3,68.9,29.86,North,-999,-999.0,-999.0,99,-99.99,,,-99.99,meteohub,2013-06-16 00:17:00,
2013-06-15 19:22:00,69.4,69.1,29.85,North,-999,-999.0,-999.0,99,-99.99,,,-99.99,meteohub,2013-06-16 00:22:00,
2013-06-15 19:27:00,69.4,69.1,29.85,North,-999,-999.0,-999.0,99,-99.99,,,-99.99,meteohub,2013-06-16 00:27:00,
2013-06-15 19:32:00,69.6,69.1,29.86,North,-999,-999.0,-999.0,98,-99.99,,,-99.99,meteohub,2013-06-16 00:32:00,
2013-06-15 19:37:00,69.6,69.1,29.85,North,-999,-999.0,-999.0,98,-99.99,,,-99.99,meteohub,2013-06-16 00:37:00,
2013-06-15 19:42:00,69.6,69.1,29.86,North,-999,-999.0,-999.0,98,-99.99,,,-99.99,meteohub,2013-06-16 00:42:00,
2013-06-15 19:47:00,69.6,69.1,29.86,North,-999,-999.0,-999.0,98,-99.99,,,-99.99,meteohub,2013-06-16 00:47:00,
2013-06-15 19:52:00,69.4,68.5,29.86,North,-999,-999.0,-999.0,97,-99.99,,,-99.99,meteohub,2013-06-16 00:52:00,
2013-06-15 19:57:00,69.3,68.0,29.86,North,-999,-999.0,-999.0,96,-99.99,,,-99.99,meteohub,2013-06-16 00:57:00,
2013-06-15 20:02:00,69.1,67.8,29.86,North,-999,-999.0,-999.0,96,-99.99,,,-99.99,meteohub,2013-06-16 01:02:00,
2013-06-15 20:07:00,68.9,68.4,29.86,North,-999,-999.0,-999.0,98,-99.99,,,-99.99,meteohub,2013-06-16 01:07:00,
2013-06-15 20:12:00,68.7,68.4,29.86,North,-999,-999.0,-999.0,99,-99.99,,,-99.99,meteohub,2013-06-16 01:12:00,
2013-06-15 20:17:00,68.5,68.2,29.86,North,-999,-999.0,-999.0,99,-99.99,,,-99.99,meteohub,2013-06-16 01:17:00,
2013-06-15 20:22:00,68.5,68.2,29.86,North,-999,-999.0,-999.0,99,-99.99,,,-99.99,meteohub,2013-06-16 01:22:00,
2013-06-15 20:27:00,68.5,68.2,29.87,North,-999,-999.0,-999.0,99,-99.99,,,-99.99,meteohub,2013-06-16 01:27:00,
2013-06-15 20:32:00,68.4,68.0,29.87,North,-999,-999.0,-999.0,99,-99.99,,,-99.99,meteohub,2013-06-16 01:32:00,
2013-06-15 20:37:00,68.4,68.0,29.87,North,-999,-999.0,-999.0,99,-99.99,,,-99.99,meteohub,2013-06-16 01:37:00,
2013-06-15 20:42:00,68.4,68.0,29.88,North,-999,-999.0,-999.0,99,-99.99,,,-99.99,meteohub,2013-06-16 01:42:00,
2013-06-15 20:47:00,68.4,68.0,29.88,North,-999,-999.0,-999.0,99,-99.99,,,-99.99,meteohub,2013-06-16 01:47:00,
2013-06-15 20:52:00,68.4,68.0,29.88,North,-999,-999.0,-999.0,99,-99.99,,,-99.99,meteohub,2013-06-16 01:52:00,
2013-06-15 20:57:00,68.4,68.0,29.88,North,-999,-999.0,-999.0,99,-99.99,,,-99.99,meteohub,2013-06-16 01:57:00,
2013-06-15 21:02:00,68.4,68.0,29.87,North,-999,-999.0,-999.0,99,-99.99,,,-99.99,meteohub,2013-06-16 02:02:00,
2013-06-15 21:07:00,68.4,68.0,29.87,North,-999,-999.0,-999.0,99,-99.99,,,-99.99,meteohub,2013-06-16 02:07:00,
2013-06-15 21:12:00,68.2,67.8,29.87,North,-999,-999.0,-999.0,99,-99.99,,,-99.99,meteohub,2013-06-16 02:12:00,
2013-06-15 21:17:00,68.2,67.8,29.86,North,-999,-999.0,-999.0,99,-99.99,,,-99.99,meteohub,2013-06-16 02:17:00,
2013-06-15 21:22:00,68.2,67.8,29.86,North,-999,-999.0,-999.0,99,-99.99,,,-99.99,meteohub,2013-06-16 02:22:00,
2013-06-15 21:27:00,68.2,67.8,29.85,North,-999,-999.0,-999.0,99,-99.99,,,-99.99,meteohub,2013-06-16 02:27:00,
2013-06-15 21:32:00,68.0,67.6,29.86,North,-999,-999.0,-999.0,99,-99.99,,,-99.99,meteohub,2013-06-16 02:32:00,
2013-06-15 21:37:00,68.0,67.6,29.86,North,-999,-999.0,-999.0,99,-99.99,,,-99.99,meteohub,2013-06-16 02:37:00,
2013-06-15 21:42:00,68.0,67.6,29.87,North,-999,-999.0,-999.0,99,-99.99,,,-99.99,meteohub,2013-06-16 02:42:00,
2013-06-15 21:47:00,68.0,67.6,29.88,North,-999,-999.0,-999.0,99,-99.99,,,-99.99,meteohub,2013-06-16 02:47:00,
2013-06-15 21:52:00,68.0,67.6,29.88,North,-999,-999.0,-999.0,99,-99.99,,,-99.99,meteohub,2013-06-16 02:52:00,
2013-06-15 21:57:00,68.0,67.6,29.87,North,-999,-999.0,-999.0,99,-99.99,,,-99.99,meteohub,2013-06-16 02:57:00,
2013-06-15 22:02:00,67.8,67.5,29.88,North,-999,-999.0,-999.0,99,-99.99,,,-99.99,meteohub,2013-06-16 03:02:00,
2013-06-15 22:07:00,67.8,67.5,29.88,North,-999,-999.0,-999.0,99,-99.99,,,-99.99,meteohub,2013-06-16 03:07:00,
2013-06-15 22:12:00,67.8,67.5,29.88,North,-999,-999.0,-999.0,99,-99.99,,,-99.99,meteohub,2013-06-16 03:12:00,
2013-06-15 22:17:00,67.8,67.5,29.88,North,-999,-999.0,-999.0,99,-99.99,,,-99.99,meteohub,2013-06-16 03:17:00,
2013-06-15 22:22:00,67.8,67.5,29.87,North,-999,-999.0,-999.0,99,-99.99,,,-99.99,meteohub,2013-06-16 03:22:00,
2013-06-15 22:27:00,67.8,67.5,29.88,North,-999,-999.0,-999.0,99,-99.99,,,-99.99,meteohub,2013-06-16 03:27:00,
2013-06-15 22:32:00,68.0,67.6,29.88,North,-999,-999.0,-999.0,99,-99.99,,,-99.99,meteohub,2013-06-16 03:32:00,
2013-06-15 22:37:00,68.0,67.6,29.88,North,-999,-999.0,-999.0,99,-99.99,,,-99.99,meteohub,2013-06-16 03:37:00,
2013-06-15 22:42:00,68.2,67.8,29.88,North,-999,-999.0,-999.0,99,-99.99,,,-99.99,meteohub,2013-06-16 03:42:00,
2013-06-15 22:47:00,68.2,67.8,29.88,North,-999,-999.0,-999.0,99,-99.99,,,-99.99,meteohub,2013-06-16 03:47:00,
2013-06-15 22:52:00,68.2,67.8,29.88,North,-999,-999.0,-999.0,99,-99.99,,,-99.99,meteohub,2013-06-16 03:52:00,
2013-06-15 22:59:00,68.2,67.8,29.89,North,-999,-999.0,-999.0,99,-99.99,,,-99.99,meteohub,2013-06-16 03:59:00,
2013-06-15 23:02:00,68.2,67.8,29.89,North,-999,-999.0,-999.0,99,-99.99,,,-99.99,meteohub,2013-06-16 04:02:00,
2013-06-15 23:08:00,68.0,67.6,29.91,North,-999,-999.0,-999.0,99,-99.99,,,-99.99,meteohub,2013-06-16 04:08:00,
2013-06-15 23:12:00,68.0,67.6,29.91,North,-999,-999.0,-999.0,99,-99.99,,,-99.99,meteohub,2013-06-16 04:12:00,
2013-06-15 23:17:00,68.0,67.6,29.91,North,-999,-999.0,-999.0,99,-99.99,,,-99.99,meteohub,2013-06-16 04:17:00,
2013-06-15 23:22:00,68.0,67.6,29.91,North,-999,-999.0,-999.0,99,-99.99,,,-99.99,meteohub,2013-06-16 04:22:00,
2013-06-15 23:27:00,68.0,67.6,29.90,North,-999,-999.0,-999.0,99,-99.99,,,-99.99,meteohub,2013-06-16 04:27:00,
2013-06-15 23:32:00,68.0,67.6,29.90,North,-999,-999.0,-999.0,99,-99.99,,,-99.99,meteohub,2013-06-16 04:32:00,
2013-06-15 23:37:00,67.8,67.5,29.90,North,-999,-999.0,-999.0,99,-99.99,,,-99.99,meteohub,2013-06-16 04:37:00,
2013-06-15 23:42:00,67.6,67.3,29.91,North,-999,-999.0,-999.0,99,-99.99,,,-99.99,meteohub,2013-06-16 04:42:00,
2013-06-15 23:47:00,67.5,67.1,29.91,North,-999,-999.0,-999.0,99,-99.99,,,-99.99,meteohub,2013-06-16 04:47:00,
2013-06-15 23:52:00,67.6,67.3,29.91,North,-999,-999.0,-999.0,99,-99.99,,,-99.99,meteohub,2013-06-16 04:52:00,
2013-06-15 23:57:00,67.6,67.3,29.91,North,-999,-999.0,-999.0,99,-99.99,,,-99.99,meteohub,2013-06-16 04:57:00,